Time;durP1;ratioP1;P1;durP2;ratioP2;P2;SDS_P1;SDS_P2;PMS_P1;PMS_P2;Temp;Humidity;BMP_temperature;BMP_pressure;BME280_temperature;BME280_humidity;BME280_pressure;Samples;Min_cycle;Max_cycle;Signal;HPM_P1;HPM_P2
2022/01/19 00:00:48;;;;;;;;;27.50;26.25;;;;;8.39;62.66;102961.81;5049069;28;45343;-82
2022/01/19 00:03:14;;;;;;;;;29.25;28.25;;;;;8.41;62.69;102969.69;5061937;28;45497;-82
2022/01/19 00:05:40;;;;;;;;;36.25;27.50;;;;;8.38;62.75;102970.53;5060606;28;45316;-82
2022/01/19 00:08:05;;;;;;;;;24.75;23.75;;;;;8.39;62.71;102971.41;5061901;28;45265;-83
2022/01/19 00:10:31;;;;;;;;;27.25;22.25;;;;;8.40;62.77;102978.41;5061119;28;45365;-84
2022/01/19 00:12:58;;;;;;;;;28.25;25.00;;;;;8.40;63.31;102975.78;5061214;28;45399;-84
2022/01/19 00:15:25;;;;;;;;;32.00;28.25;;;;;8.42;62.51;102977.56;5060709;28;45315;-92
2022/01/19 00:17:56;;;;;;;;;31.50;27.50;;;;;8.40;63.14;102967.91;5056973;28;45780;-90
2022/01/19 00:20:22;;;;;;;;;33.25;29.25;;;;;8.42;62.48;102959.22;5055295;28;45267;-91
2022/01/19 00:22:49;;;;;;;;;46.75;38.00;;;;;8.42;62.55;102938.25;5057681;28;45450;-90
2022/01/19 00:25:15;;;;;;;;;38.75;33.00;;;;;8.39;62.72;102921.63;5060211;28;46139;-91
2022/01/19 00:27:41;;;;;;;;;31.00;25.75;;;;;8.36;62.52;102921.59;5060923;28;45307;-91
2022/01/19 00:30:07;;;;;;;;;30.25;26.50;;;;;8.37;62.18;102905.00;5060428;28;45452;-90
2022/01/19 00:32:33;;;;;;;;;28.75;26.50;;;;;8.36;62.67;102903.25;5058103;28;45511;-93
2022/01/19 00:34:59;;;;;;;;;31.00;26.50;;;;;8.36;62.32;102898.88;5056620;28;46403;-93
2022/01/19 00:37:25;;;;;;;;;27.75;24.75;;;;;8.37;61.98;102900.63;5061517;28;45217;-92
2022/01/19 00:39:51;;;;;;;;;26.50;24.00;;;;;8.38;62.57;102904.13;5060755;28;45221;-93
2022/01/19 00:42:18;;;;;;;;;25.50;21.75;;;;;8.36;62.73;102909.38;5055506;28;45407;-93
2022/01/19 00:44:43;;;;;;;;;31.00;28.00;;;;;8.36;62.80;102919.84;5054656;28;46170;-90
2022/01/19 00:47:09;;;;;;;;;28.75;24.75;;;;;8.38;62.55;102923.38;5059808;28;45475;-81
2022/01/19 00:49:34;;;;;;;;;25.25;23.50;;;;;8.37;62.70;102923.34;5059828;28;45708;-85
2022/01/19 00:52:00;;;;;;;;;28.75;25.50;;;;;8.36;62.28;102919.84;5060321;28;45477;-85
2022/01/19 00:54:25;;;;;;;;;31.50;25.50;;;;;8.39;61.78;102929.50;5060858;28;45538;-86
2022/01/19 00:56:51;;;;;;;;;22.75;20.75;;;;;8.37;62.51;102936.47;5060030;28;45271;-85
2022/01/19 00:59:16;;;;;;;;;21.00;20.00;;;;;8.39;62.28;102935.63;5059541;28;45322;-87
2022/01/19 01:01:42;;;;;;;;;29.00;24.50;;;;;8.38;62.23;102925.09;5061156;28;45298;-87
2022/01/19 01:04:07;;;;;;;;;34.00;27.00;;;;;8.38;62.76;102917.22;5060407;28;45460;-87
2022/01/19 01:06:32;;;;;;;;;28.25;26.25;;;;;8.36;61.73;102909.38;5060671;28;45381;-85
2022/01/19 01:08:58;;;;;;;;;26.00;23.75;;;;;8.36;62.61;102903.25;5056703;28;45299;-86
2022/01/19 01:11:29;;;;;;;;;28.50;23.50;;;;;8.32;62.09;102895.34;5051022;28;45334;-85
2022/01/19 01:16:35;;;;;;;;;28.50;24.75;;;;;8.35;61.73;102886.63;5060624;28;45841;-85
2022/01/19 01:19:02;;;;;;;;;25.50;23.25;;;;;8.33;61.61;102884.00;5060112;28;45402;-85
2022/01/19 01:21:27;;;;;;;;;26.00;21.00;;;;;8.31;61.68;102877.00;5060391;27;45197;-85
2022/01/19 01:23:52;;;;;;;;;29.75;24.75;;;;;8.31;62.18;102869.13;5059776;28;45227;-85
2022/01/19 01:26:18;;;;;;;;;21.75;17.50;;;;;8.33;62.70;102863.03;5052837;28;45248;-85
2022/01/19 01:28:43;;;;;;;;;24.25;23.75;;;;;8.33;62.21;102876.16;5059523;28;45224;-85
2022/01/19 01:31:09;;;;;;;;;33.25;29.00;;;;;8.33;62.71;102883.13;5049358;28;45326;-85
2022/01/19 01:33:38;;;;;;;;;23.75;23.25;;;;;8.33;62.46;102889.25;5060377;28;45905;-86
2022/01/19 01:36:04;;;;;;;;;30.00;24.75;;;;;8.36;62.53;102892.75;5056469;28;46144;-86
2022/01/19 01:38:30;;;;;;;;;27.75;25.25;;;;;8.33;62.50;102884.00;5053774;28;46647;-86
2022/01/19 01:40:55;;;;;;;;;27.25;23.75;;;;;8.32;61.82;102884.84;5060609;28;45454;-86
2022/01/19 01:43:21;;;;;;;;;26.00;22.00;;;;;8.28;62.19;102883.06;5058971;28;47277;-87
2022/01/19 01:45:52;;;;;;;;;27.00;23.25;;;;;8.33;61.95;102889.25;5060407;28;45161;-86
2022/01/19 01:48:21;;;;;;;;;27.25;24.00;;;;;8.31;61.49;102880.50;5060376;28;45309;-85
2022/01/19 01:53:33;;;;;;;;;27.75;24.75;;;;;8.32;61.70;102877.00;5060212;28;46660;-83
2022/01/19 01:56:13;;;;;;;;;25.50;21.00;;;;;8.33;61.29;102880.50;5060323;28;45158;-84
2022/01/19 01:58:42;;;;;;;;;25.25;22.50;;;;;8.28;62.22;102866.47;5058314;28;45437;-82
2022/01/19 02:01:09;;;;;;;;;30.00;20.75;;;;;8.28;62.29;102861.22;5058480;28;47089;-83
2022/01/19 02:03:39;;;;;;;;;27.75;24.25;;;;;8.28;61.71;102864.72;5059546;27;45288;-84
2022/01/19 02:15:49;;;;;;;;;25.75;22.00;;;;;8.27;61.48;102855.09;5052156;28;45295;-83
2022/01/19 02:22:36;;;;;;;;;28.25;22.25;;;;;8.26;62.40;102824.53;5059785;28;45385;-83
2022/01/19 02:25:03;;;;;;;;;27.00;20.00;;;;;8.27;62.15;102818.41;5059598;28;45405;-83
2022/01/19 02:41:10;;;;;;;;;26.00;23.25;;;;;8.22;61.83;102786.94;5059124;28;45454;-85
2022/01/19 02:43:36;;;;;;;;;28.50;24.25;;;;;8.22;61.84;102781.69;5059202;28;45286;-86
2022/01/19 02:51:30;;;;;;;;;32.00;25.50;;;;;8.19;62.47;102767.69;5059476;28;45496;-85
2022/01/19 02:53:55;;;;;;;;;23.75;23.50;;;;;8.20;62.30;102761.56;5058926;28;45133;-84
2022/01/19 02:56:26;;;;;;;;;31.00;24.75;;;;;8.18;62.05;102756.34;5058665;28;45375;-85
2022/01/19 02:58:58;;;;;;;;;28.75;23.25;;;;;8.21;62.13;102758.13;5059343;28;45400;-85
2022/01/19 03:09:26;;;;;;;;;24.25;22.75;;;;;8.18;62.11;102758.06;5059089;28;45642;-85
2022/01/19 03:11:52;;;;;;;;;26.25;24.00;;;;;8.17;62.18;102757.19;5059284;28;45233;-84
2022/01/19 03:14:17;;;;;;;;;28.75;27.75;;;;;8.16;62.02;102760.69;5058296;28;45374;-85
2022/01/19 03:16:44;;;;;;;;;29.50;25.75;;;;;8.16;62.22;102759.81;5053692;28;47245;-94
2022/01/19 03:19:11;;;;;;;;;30.50;27.75;;;;;8.16;61.98;102751.94;5058162;28;45309;-84
2022/01/19 03:21:37;;;;;;;;;27.50;25.25;;;;;8.14;62.22;102754.56;5059121;28;45551;-81
2022/01/19 03:24:04;;;;;;;;;29.75;26.50;;;;;8.14;61.90;102746.69;5058289;28;45398;-83
2022/01/19 03:26:30;;;;;;;;;31.50;27.25;;;;;8.16;61.51;102746.72;5058263;28;45416;-83
2022/01/19 03:28:55;;;;;;;;;30.50;27.50;;;;;8.14;62.03;102751.94;5058888;28;45307;-84
2022/01/19 03:31:20;;;;;;;;;28.00;26.25;;;;;8.12;62.06;102748.44;5058989;28;45260;-84
2022/01/19 03:33:46;;;;;;;;;33.75;25.75;;;;;8.12;61.88;102748.44;5058391;28;45575;-83
2022/01/19 03:36:12;;;;;;;;;31.75;28.75;;;;;8.14;62.06;102737.97;5058428;28;45539;-83
2022/01/19 03:38:37;;;;;;;;;27.00;24.50;;;;;8.12;61.63;102739.69;5058789;28;45282;-83
2022/01/19 03:41:03;;;;;;;;;30.00;28.50;;;;;8.09;62.04;102737.91;5059038;28;45251;-85
2022/01/19 03:43:28;;;;;;;;;33.25;27.25;;;;;8.09;61.72;102735.28;5057842;28;45263;-84
2022/01/19 03:45:57;;;;;;;;;30.00;26.25;;;;;8.09;61.82;102737.91;5058860;28;47012;-83
2022/01/19 03:48:45;;;;;;;;;28.50;26.50;;;;;8.10;61.83;102737.91;5062405;28;45375;-83
2022/01/19 03:51:11;;;;;;;;;25.75;24.75;;;;;8.08;61.70;102730.91;5061971;28;45220;-83
2022/01/19 03:53:37;;;;;;;;;28.50;26.25;;;;;8.06;62.00;102730.91;5053003;28;45301;-83
2022/01/19 03:56:03;;;;;;;;;27.25;23.75;;;;;8.10;61.95;102729.19;5058159;28;45255;-83
2022/01/19 03:58:29;;;;;;;;;29.50;26.75;;;;;8.07;62.34;102730.06;5062123;28;45402;-83
2022/01/19 04:00:57;;;;;;;;;37.25;27.50;;;;;8.09;62.04;102727.44;5055929;28;45668;-87
2022/01/19 04:03:33;;;;;;;;;31.00;28.00;;;;;8.05;61.74;102720.44;5062213;28;45306;-89
2022/01/19 04:06:05;;;;;;;;;33.25;28.25;;;;;8.04;62.10;102722.16;5061337;28;45346;-87
2022/01/19 04:08:30;;;;;;;;;32.25;28.00;;;;;8.05;62.39;102715.19;5060585;28;45467;-87
2022/01/19 04:10:56;;;;;;;;;35.50;28.00;;;;;8.04;62.04;102706.44;5051770;28;45470;-85
2022/01/19 04:15:55;;;;;;;;;27.50;24.75;;;;;8.08;62.29;102709.97;5061100;28;45342;-89
2022/01/19 04:18:21;;;;;;;;;32.00;28.25;;;;;8.05;62.12;102707.34;5059982;28;45400;-88
2022/01/19 04:20:51;;;;;;;;;28.25;26.25;;;;;8.02;61.87;102702.94;5059565;28;45386;-88
2022/01/19 04:23:19;;;;;;;;;26.25;25.25;;;;;8.04;62.03;102713.41;5061567;28;45260;-88
2022/01/19 04:25:45;;;;;;;;;28.50;26.00;;;;;8.04;62.44;102711.69;5061278;28;46451;-88
2022/01/19 04:28:11;;;;;;;;;31.00;25.75;;;;;8.06;62.54;102707.34;5061396;28;45409;-89
2022/01/19 04:30:39;;;;;;;;;35.50;32.25;;;;;8.05;62.46;102709.94;5055851;28;45552;-90
2022/01/19 04:35:34;;;;;;;;;31.75;28.25;;;;;8.04;62.34;102714.31;5060857;28;46013;-87
2022/01/19 04:54:47;;;;;;;;;30.75;26.50;;;;;8.02;62.55;102710.78;5061041;28;45314;-87
2022/01/19 05:07:25;;;;;;;;;27.00;26.75;;;;;8.03;62.28;102701.16;5060426;28;46050;-93
2022/01/19 05:13:25;;;;;;;;;28.50;27.75;;;;;8.01;62.52;102703.78;5061245;28;45956;-90
2022/01/19 05:15:36;;;;;;;;;27.75;23.50;;;;;8.02;62.37;102697.69;5059937;28;45449;-89
2022/01/19 05:18:02;;;;;;;;;30.75;26.50;;;;;8.05;62.26;102702.94;5058418;28;46981;-89
2022/01/19 05:20:28;;;;;;;;;33.75;29.00;;;;;8.03;61.77;102698.56;5060566;28;45279;-89
2022/01/19 05:22:54;;;;;;;;;29.75;28.25;;;;;8.02;62.46;102695.09;5059552;28;45348;-89
2022/01/19 05:25:19;;;;;;;;;29.00;27.50;;;;;8.02;62.33;102695.09;5056431;28;46063;-85
2022/01/19 05:27:45;;;;;;;;;31.00;26.00;;;;;8.04;62.04;102695.97;5058318;28;45417;-85
2022/01/19 05:30:17;;;;;;;;;30.00;26.50;;;;;8.02;62.56;102684.59;5058816;28;45492;-90
2022/01/19 05:32:44;;;;;;;;;36.00;29.00;;;;;8.07;62.24;102696.00;5058139;28;45253;-82
2022/01/19 05:35:10;;;;;;;;;33.25;28.75;;;;;8.04;62.16;102685.50;5060396;28;46621;-81
2022/01/19 05:37:38;;;;;;;;;27.00;25.75;;;;;8.04;62.92;102682.88;5060296;28;45574;-80
2022/01/19 05:40:07;;;;;;;;;30.50;29.25;;;;;8.07;62.50;102687.25;5060333;28;45468;-81
2022/01/19 05:42:33;;;;;;;;;33.25;28.25;;;;;8.07;62.81;102692.50;5058043;28;45219;-80
2022/01/19 05:44:59;;;;;;;;;31.50;25.50;;;;;8.05;62.91;102686.38;5060072;28;45493;-80
2022/01/19 05:47:24;;;;;;;;;36.75;32.25;;;;;8.06;62.96;102685.50;5060259;28;46673;-79
2022/01/19 05:49:49;;;;;;;;;30.00;25.00;;;;;8.06;62.35;102690.72;5059815;28;45217;-79
2022/01/19 05:52:15;;;;;;;;;35.75;32.75;;;;;8.04;62.07;102688.13;5059978;28;45694;-79
2022/01/19 05:54:40;;;;;;;;;41.00;33.25;;;;;8.06;61.71;102694.25;5053441;28;45285;-80
2022/01/19 05:57:06;;;;;;;;;35.75;32.25;;;;;8.04;61.76;102690.72;5055637;28;46099;-80
2022/01/19 05:59:32;;;;;;;;;38.25;32.00;;;;;8.03;62.88;102688.97;5050699;28;45440;-79
2022/01/19 06:01:58;;;;;;;;;39.75;34.50;;;;;8.06;62.36;102696.84;5058909;28;45402;-79
2022/01/19 06:04:24;;;;;;;;;33.75;31.50;;;;;8.05;62.23;102691.63;5059537;28;45433;-78
2022/01/19 06:06:51;;;;;;;;;36.00;32.75;;;;;8.09;62.23;102691.66;5059226;28;45436;-79
2022/01/19 06:09:34;;;;;;;;;32.00;29.00;;;;;8.08;62.74;102684.66;5058946;28;45771;-79
2022/01/19 06:12:04;;;;;;;;;29.25;28.00;;;;;8.09;62.68;102691.66;5048027;28;45384;-79
2022/01/19 06:14:29;;;;;;;;;37.50;32.25;;;;;8.08;62.82;102689.00;5058640;28;45170;-79
2022/01/19 06:16:55;;;;;;;;;36.25;31.50;;;;;8.09;62.58;102688.16;5055944;28;45425;-79
2022/01/19 06:19:20;;;;;;;;;34.75;32.75;;;;;8.10;62.45;102688.16;5049552;28;45383;-79
2022/01/19 06:21:46;;;;;;;;;33.00;29.50;;;;;8.10;62.26;102688.16;5056391;28;45461;-79
2022/01/19 06:24:11;;;;;;;;;37.75;33.00;;;;;8.13;62.78;102686.41;5052601;28;45504;-79
2022/01/19 06:26:38;;;;;;;;;36.25;31.75;;;;;8.15;62.37;102695.19;5055822;28;45441;-79
2022/01/19 06:29:04;;;;;;;;;29.00;27.25;;;;;8.14;62.51;102694.31;5056061;28;47024;-79
2022/01/19 06:31:30;;;;;;;;;34.00;28.75;;;;;8.13;62.86;102684.69;5054830;28;45534;-79
2022/01/19 06:33:55;;;;;;;;;28.50;24.50;;;;;8.15;63.10;102684.72;5057428;28;46332;-79
2022/01/19 06:36:21;;;;;;;;;36.25;33.25;;;;;8.16;62.80;102681.22;5048707;28;45381;-79
2022/01/19 06:38:46;;;;;;;;;37.25;32.25;;;;;8.15;63.22;102675.09;5048328;28;45202;-81
2022/01/19 06:41:11;;;;;;;;;37.75;32.50;;;;;8.16;62.92;102670.75;5052643;28;45803;-78
2022/01/19 06:43:37;;;;;;;;;30.00;27.25;;;;;8.14;62.43;102673.34;5059051;28;45262;-78
2022/01/19 06:46:03;;;;;;;;;36.50;32.25;;;;;8.15;62.65;102679.47;5060155;28;45380;-78
2022/01/19 06:48:28;;;;;;;;;32.00;29.75;;;;;8.17;63.03;102686.47;5047124;27;45216;-78
2022/01/19 06:50:53;;;;;;;;;38.50;31.25;;;;;8.17;62.76;102682.97;5056930;28;45419;-78
2022/01/19 06:53:20;;;;;;;;;39.25;33.75;;;;;8.16;62.62;102675.97;5060856;28;46155;-78
2022/01/19 06:55:46;;;;;;;;;37.75;29.25;;;;;8.15;63.06;102675.09;5049369;28;45473;-78
2022/01/19 06:58:11;;;;;;;;;32.75;27.50;;;;;8.18;62.66;102687.34;5047735;28;45425;-78
2022/01/19 07:00:37;;;;;;;;;38.75;35.00;;;;;8.17;62.82;102677.75;5052017;28;45431;-78
2022/01/19 07:03:02;;;;;;;;;38.75;33.75;;;;;8.18;63.04;102674.25;5050359;28;45477;-78
2022/01/19 07:05:28;;;;;;;;;41.50;32.25;;;;;8.18;63.08;102672.50;5042676;28;45427;-78
2022/01/19 07:07:56;;;;;;;;;42.00;36.50;;;;;8.18;63.51;102663.78;5066223;28;45240;-77
2022/01/19 07:10:22;;;;;;;;;44.75;36.75;;;;;8.20;63.18;102672.50;5056708;28;45228;-78
2022/01/19 07:12:47;;;;;;;;;47.50;37.00;;;;;8.22;63.40;102665.56;5056108;28;45306;-78
2022/01/19 07:15:13;;;;;;;;;42.50;35.25;;;;;8.19;63.00;102671.66;5058343;28;45894;-78
2022/01/19 07:17:38;;;;;;;;;49.00;39.00;;;;;8.19;62.53;102673.41;5058051;28;45523;-77
2022/01/19 07:20:04;;;;;;;;;56.25;44.00;;;;;8.19;62.93;102674.28;5058453;28;45628;-78
2022/01/19 07:22:29;;;;;;;;;47.25;38.25;;;;;8.18;62.78;102669.00;5064806;28;45402;-78
2022/01/19 07:24:56;;;;;;;;;73.00;52.75;;;;;8.18;62.74;102669.88;5062618;28;45235;-78
2022/01/19 07:27:22;;;;;;;;;47.50;37.75;;;;;8.18;62.90;102679.47;5062412;28;45430;-78
2022/01/19 07:29:47;;;;;;;;;45.50;37.25;;;;;8.19;62.64;102676.00;5062522;28;45247;-78
2022/01/19 07:32:13;;;;;;;;;61.25;47.25;;;;;8.19;62.94;102684.75;5062555;28;45441;-78
2022/01/19 07:34:39;;;;;;;;;54.50;40.75;;;;;8.21;62.93;102685.63;5061655;28;46156;-78
2022/01/19 07:37:04;;;;;;;;;63.25;47.50;;;;;8.21;63.41;102684.75;5061857;28;45324;-78
2022/01/19 07:39:30;;;;;;;;;55.25;41.00;;;;;8.22;62.93;102697.00;5063549;28;45933;-78
2022/01/19 07:41:55;;;;;;;;;45.00;36.50;;;;;8.22;62.83;102681.28;5067813;28;45508;-78
2022/01/19 07:44:22;;;;;;;;;48.25;38.50;;;;;8.26;63.23;102693.53;5072596;28;45261;-78
2022/01/19 07:46:48;;;;;;;;;54.00;42.25;;;;;8.25;63.11;102683.06;5062201;28;45213;-78
2022/01/19 07:49:14;;;;;;;;;52.00;42.00;;;;;8.30;63.14;102686.56;5062091;28;45468;-78
2022/01/19 07:51:40;;;;;;;;;52.75;39.50;;;;;8.30;63.19;102687.44;5061868;28;45371;-78
2022/01/19 07:54:05;;;;;;;;;50.75;41.25;;;;;8.34;63.14;102696.22;5061760;28;46242;-78
2022/01/19 07:56:31;;;;;;;;;48.75;38.25;;;;;8.36;63.00;102694.50;5061087;28;45452;-78
2022/01/19 07:58:56;;;;;;;;;52.00;39.75;;;;;8.36;63.31;102691.00;5060495;28;45546;-78
2022/01/19 08:01:22;;;;;;;;;50.75;39.50;;;;;8.40;63.45;102698.00;5055767;28;45364;-77
2022/01/19 08:03:47;;;;;;;;;53.50;41.50;;;;;8.39;63.21;102685.78;5056588;28;46235;-77
2022/01/19 08:06:13;;;;;;;;;58.75;47.00;;;;;8.38;63.01;102684.91;5059670;28;45490;-78
2022/01/19 08:08:38;;;;;;;;;56.75;44.00;;;;;8.43;62.91;102692.78;5056265;28;45455;-77
2022/01/19 08:11:04;;;;;;;;;57.75;43.00;;;;;8.45;62.94;102696.28;5061917;28;45420;-77
2022/01/19 08:13:30;;;;;;;;;50.50;39.00;;;;;8.44;63.57;102691.94;5061394;28;45323;-77
2022/01/19 08:15:55;;;;;;;;;45.75;38.00;;;;;8.45;63.00;102683.19;5069864;28;45314;-77
2022/01/19 08:18:20;;;;;;;;;54.50;43.50;;;;;8.45;63.54;102693.66;5066738;28;45190;-77
2022/01/19 08:20:46;;;;;;;;;61.25;46.50;;;;;8.46;63.43;102690.19;5061373;28;45546;-77
2022/01/19 08:23:11;;;;;;;;;59.50;45.75;;;;;8.47;63.61;102685.84;5061775;28;46666;-77
2022/01/19 08:25:37;;;;;;;;;47.75;40.50;;;;;8.50;63.26;102689.34;5061776;28;45284;-77
2022/01/19 08:28:04;;;;;;;;;55.25;43.50;;;;;8.55;63.12;102694.63;5061358;28;45270;-77
2022/01/19 08:30:29;;;;;;;;;53.00;41.00;;;;;8.51;63.48;102691.13;5061666;28;45485;-77
2022/01/19 08:32:55;;;;;;;;;60.00;44.00;;;;;8.51;62.97;102691.13;5063147;28;45484;-78
2022/01/19 08:35:20;;;;;;;;;51.75;40.50;;;;;8.52;63.08;102705.97;5074203;28;45195;-78
2022/01/19 08:37:45;;;;;;;;;58.50;43.75;;;;;8.52;63.03;102716.44;5061772;28;45288;-78
2022/01/19 08:40:12;;;;;;;;;60.75;45.25;;;;;8.49;63.22;102712.94;5060798;28;45329;-78
2022/01/19 08:42:38;;;;;;;;;54.25;40.00;;;;;8.48;63.42;102701.56;5070969;28;45424;-78
2022/01/19 08:45:07;;;;;;;;;48.50;35.00;;;;;8.50;63.64;102712.94;5065114;27;45409;-78
2022/01/19 08:47:37;;;;;;;;;48.25;38.75;;;;;8.53;63.32;102718.22;5057426;28;45480;-78
2022/01/19 08:50:10;;;;;;;;;53.50;41.75;;;;;8.56;63.51;102714.72;5060560;28;45449;-77
2022/01/19 08:52:35;;;;;;;;;48.50;37.25;;;;;8.58;63.66;102725.22;5061116;28;48101;-77
2022/01/19 08:55:01;;;;;;;;;50.75;39.00;;;;;8.60;63.49;102718.28;5061301;28;45460;-78
2022/01/19 08:57:27;;;;;;;;;48.50;39.00;;;;;8.63;63.67;102724.44;5061355;28;45571;-78
2022/01/19 08:59:52;;;;;;;;;48.00;35.25;;;;;8.59;62.98;102725.28;5061084;28;45305;-78
2022/01/19 09:02:18;;;;;;;;;45.00;34.50;;;;;8.60;63.85;102731.38;5061056;28;46590;-78
2022/01/19 09:04:45;;;;;;;;;46.75;38.25;;;;;8.64;63.02;102733.19;5070787;28;45450;-78
2022/01/19 09:07:11;;;;;;;;;36.50;33.50;;;;;8.62;63.63;102734.88;5072917;27;45258;-78
2022/01/19 09:09:36;;;;;;;;;53.00;39.00;;;;;8.63;63.59;102728.78;5060931;28;45240;-79
2022/01/19 09:12:02;;;;;;;;;42.00;35.00;;;;;8.61;62.93;102734.03;5061063;28;45416;-77
2022/01/19 09:14:28;;;;;;;;;49.50;36.00;;;;;8.62;63.26;102732.25;5060319;28;45386;-78
2022/01/19 09:16:54;;;;;;;;;55.50;42.50;;;;;8.63;63.74;102734.91;5060962;28;45190;-80
2022/01/19 09:19:20;;;;;;;;;49.50;40.75;;;;;8.65;63.39;102737.53;5067855;28;46881;-80
2022/01/19 09:21:46;;;;;;;;;40.25;33.50;;;;;8.65;63.61;102738.41;5063663;27;45477;-82
2022/01/19 09:24:11;;;;;;;;;36.75;32.00;;;;;8.69;63.35;102738.44;5060563;28;45405;-80
2022/01/19 09:26:38;;;;;;;;;45.25;38.00;;;;;8.70;63.25;102734.94;5060822;28;45493;-80
2022/01/19 09:29:04;;;;;;;;;40.25;31.75;;;;;8.69;63.57;102728.84;5063976;28;45506;-80
2022/01/19 09:31:30;;;;;;;;;43.75;36.50;;;;;8.75;63.24;102738.47;5065078;27;45429;-80
2022/01/19 09:34:07;;;;;;;;;49.50;36.50;;;;;8.73;63.24;102738.47;5068280;28;45227;-80
2022/01/19 09:36:35;;;;;;;;;32.75;28.75;;;;;8.70;63.09;102741.06;5060204;28;45441;-80
2022/01/19 09:39:01;;;;;;;;;49.00;38.25;;;;;8.70;62.90;102742.81;5060502;28;45239;-80
2022/01/19 09:41:28;;;;;;;;;40.25;32.75;;;;;8.74;63.15;102748.09;5059240;28;47043;-80
2022/01/19 09:43:54;;;;;;;;;43.75;35.00;;;;;8.76;63.09;102751.63;5059915;28;45883;-80
2022/01/19 09:46:19;;;;;;;;;41.75;35.25;;;;;8.75;63.16;102738.47;5060452;28;45538;-80
2022/01/19 09:48:44;;;;;;;;;41.00;33.75;;;;;8.79;62.86;102742.88;5059670;28;45599;-80
2022/01/19 09:51:13;;;;;;;;;39.75;31.00;;;;;8.79;63.05;102737.63;5060148;28;46450;-80
2022/01/19 09:53:38;;;;;;;;;49.75;37.75;;;;;8.76;62.53;102748.13;5060806;28;45834;-80
2022/01/19 09:56:04;;;;;;;;;61.00;47.00;;;;;8.76;62.98;102749.00;5059997;28;45205;-80
2022/01/19 09:58:29;;;;;;;;;47.75;33.75;;;;;8.74;62.95;102740.22;5060408;28;45453;-80
2022/01/19 10:00:55;;;;;;;;;46.50;36.50;;;;;8.74;62.82;102736.75;5060037;28;45382;-80
2022/01/19 10:03:27;;;;;;;;;48.50;37.50;;;;;8.80;63.00;102738.50;5065198;28;45479;-80
2022/01/19 10:06:10;;;;;;;;;48.25;36.25;;;;;8.77;62.78;102737.63;5060012;28;45294;-80
2022/01/19 10:08:37;;;;;;;;;47.25;35.25;;;;;8.80;62.43;102738.50;5048525;28;45605;-80
2022/01/19 10:11:26;;;;;;;;;40.75;34.25;;;;;8.83;62.97;102741.16;5059897;28;46489;-80
2022/01/19 10:17:03;;;;;;;;;43.00;35.50;;;;;8.85;62.60;102744.66;5059665;28;45415;-80
2022/01/19 10:19:49;;;;;;;;;31.50;26.75;;;;;8.85;62.93;102742.94;5060445;28;45216;-80
2022/01/19 10:22:17;;;;;;;;;35.50;31.50;;;;;8.89;62.66;102741.19;5059618;28;45311;-80
2022/01/19 10:24:50;;;;;;;;;44.00;35.75;;;;;8.92;62.70;102742.97;5071367;28;45488;-80
2022/01/19 10:27:48;;;;;;;;;47.75;37.00;;;;;8.93;62.79;102747.34;5059600;28;45418;-81
2022/01/19 10:30:19;;;;;;;;;45.75;37.25;;;;;8.92;62.30;102738.59;5047375;28;45679;-77
2022/01/19 10:32:51;;;;;;;;;43.00;35.50;;;;;8.97;62.54;102746.50;5066472;28;46437;-80
2022/01/19 10:35:30;;;;;;;;;48.25;36.25;;;;;8.96;62.41;102742.97;5058689;28;45382;-80
2022/01/19 10:38:16;;;;;;;;;44.00;35.25;;;;;8.97;61.93;102734.25;5059002;28;45367;-80
2022/01/19 10:41:02;;;;;;;;;45.75;36.00;;;;;8.94;62.18;102742.09;5048697;28;45458;-80
2022/01/19 10:43:39;;;;;;;;;44.25;36.25;;;;;8.99;62.53;102736.88;5059366;27;45402;-80
2022/01/19 10:46:27;;;;;;;;;52.75;38.00;;;;;8.98;62.62;102733.41;5059410;28;45445;-80
2022/01/19 10:48:57;;;;;;;;;51.50;39.50;;;;;8.97;62.63;102723.78;5059167;28;45277;-80
2022/01/19 10:51:23;;;;;;;;;43.25;34.25;;;;;8.92;62.29;102722.84;5059245;28;45469;-80
2022/01/19 10:54:13;;;;;;;;;50.75;38.75;;;;;8.93;62.43;102732.50;5059571;28;46362;-80
2022/01/19 10:56:40;;;;;;;;;44.25;37.50;;;;;8.97;62.32;102728.13;5062068;28;45214;-80
2022/01/19 10:59:10;;;;;;;;;44.75;38.00;;;;;8.99;62.82;102723.75;5063288;28;45394;-80
2022/01/19 11:01:36;;;;;;;;;49.50;38.00;;;;;8.96;62.49;102715.91;5062297;28;45481;-80
2022/01/19 11:04:20;;;;;;;;;46.25;37.00;;;;;8.97;62.67;102718.53;5062331;28;45468;-80
2022/01/19 11:06:48;;;;;;;;;44.50;38.50;;;;;8.96;62.87;102713.28;5062320;28;46021;-80
2022/01/19 11:09:14;;;;;;;;;54.25;39.50;;;;;8.98;62.75;102716.78;5063293;28;45306;-80
2022/01/19 11:11:43;;;;;;;;;54.75;42.00;;;;;9.03;63.28;102701.06;5062539;28;45326;-80
2022/01/19 11:14:10;;;;;;;;;51.50;40.00;;;;;9.03;62.76;102701.94;5051782;28;45422;-80
2022/01/19 11:16:36;;;;;;;;;57.00;42.75;;;;;9.04;62.75;102705.47;5062442;28;45220;-80
2022/01/19 11:19:01;;;;;;;;;63.75;46.50;;;;;9.03;62.90;102695.81;5057433;28;45509;-81
2022/01/19 11:21:35;;;;;;;;;60.50;46.00;;;;;9.00;62.56;102700.19;5058283;28;45286;-80
2022/01/19 11:24:14;;;;;;;;;53.00;42.50;;;;;9.01;62.96;102701.06;5072578;28;45528;-80
2022/01/19 11:26:39;;;;;;;;;63.25;46.50;;;;;9.05;62.64;102701.94;5062364;28;45476;-80
2022/01/19 11:29:20;;;;;;;;;64.25;49.75;;;;;9.05;63.03;102697.59;5061904;28;45845;-80
2022/01/19 11:31:47;;;;;;;;;61.00;48.25;;;;;9.06;63.31;102691.44;5059000;28;46241;-80
2022/01/19 11:34:13;;;;;;;;;59.50;45.75;;;;;9.05;63.23;102686.22;5061364;28;46213;-80
2022/01/19 11:36:43;;;;;;;;;62.00;46.25;;;;;9.09;62.69;102682.72;5059894;28;45415;-80
2022/01/19 11:39:14;;;;;;;;;60.25;46.00;;;;;9.11;62.95;102694.13;5062489;28;45534;-80
2022/01/19 11:41:41;;;;;;;;;65.50;51.00;;;;;9.09;62.83;102691.47;5060446;28;45581;-79
2022/01/19 11:44:29;;;;;;;;;60.25;48.00;;;;;9.09;63.14;102696.72;5061213;28;45507;-80
2022/01/19 11:46:58;;;;;;;;;53.75;44.50;;;;;9.10;63.18;102679.25;5056323;28;45365;-80
2022/01/19 11:49:48;;;;;;;;;60.25;46.75;;;;;9.11;63.24;102673.13;5061673;28;45230;-80
2022/01/19 11:52:15;;;;;;;;;65.50;48.00;;;;;9.12;63.16;102664.38;5062248;28;45473;-80
2022/01/19 11:54:41;;;;;;;;;59.75;46.50;;;;;9.06;63.01;102659.13;5062068;28;46488;-80
2022/01/19 11:57:26;;;;;;;;;57.75;43.25;;;;;9.06;63.11;102648.63;5061712;28;45421;-79
2022/01/19 11:59:55;;;;;;;;;61.25;45.00;;;;;9.07;63.25;102650.38;5062451;28;45308;-80
2022/01/19 12:02:20;;;;;;;;;61.50;45.75;;;;;9.07;63.27;102660.84;5062022;28;45370;-80
2022/01/19 12:04:47;;;;;;;;;61.00;47.25;;;;;9.03;63.15;102654.72;5061585;28;45503;-80
2022/01/19 12:07:43;;;;;;;;;56.25;44.00;;;;;9.05;63.35;102660.84;5061958;28;45296;-80
2022/01/19 12:10:12;;;;;;;;;57.50;45.50;;;;;9.04;63.42;102651.22;5056581;28;45509;-80
2022/01/19 12:12:53;;;;;;;;;59.50;45.75;;;;;9.07;63.46;102663.47;5061712;28;45436;-80
2022/01/19 12:16:08;;;;;;;;;62.00;47.50;;;;;9.09;63.54;102660.00;5061360;28;46187;-80
2022/01/19 12:18:40;;;;;;;;;60.75;46.75;;;;;9.06;63.82;102665.22;5047807;28;46067;-80
2022/01/19 12:21:11;;;;;;;;;57.00;42.00;;;;;9.02;64.05;102650.34;5061831;28;45358;-80
2022/01/19 12:23:40;;;;;;;;;55.00;45.00;;;;;9.06;63.90;102646.84;5061945;28;45207;-80
2022/01/19 12:26:07;;;;;;;;;58.75;46.00;;;;;9.12;64.07;102640.78;5061381;28;45507;-80
2022/01/19 12:28:49;;;;;;;;;53.75;42.25;;;;;9.14;63.57;102639.03;5061193;28;45828;-80
2022/01/19 12:31:35;;;;;;;;;50.75;40.50;;;;;9.14;63.87;102641.66;5061329;28;45310;-80
2022/01/19 12:34:14;;;;;;;;;52.00;42.50;;;;;9.16;63.28;102636.44;5060813;28;45414;-81
2022/01/19 12:36:58;;;;;;;;;52.00;39.75;;;;;9.17;63.87;102630.28;5061453;28;45568;-80
2022/01/19 12:39:27;;;;;;;;;48.50;38.25;;;;;9.21;63.36;102632.06;5061327;28;45765;-80
2022/01/19 12:41:58;;;;;;;;;51.50;39.25;;;;;9.21;63.64;102627.69;5061642;28;45192;-80
2022/01/19 12:44:35;;;;;;;;;52.50;39.25;;;;;9.26;63.72;102632.09;5061417;28;45490;-80
2022/01/19 12:47:24;;;;;;;;;46.75;38.00;;;;;9.25;63.29;102625.94;5061192;28;45443;-80